Time;durP1;ratioP1;P1;durP2;ratioP2;P2;SDS_P1;SDS_P2;PMS_P1;PMS_P2;Temp;Humidity;BMP_temperature;BMP_pressure;BME280_temperature;BME280_humidity;BME280_pressure;Samples;Min_cycle;Max_cycle;Signal;HPM_P1;HPM_P2
2021/11/03 00:02:11;;;;;;;65.93;30.23;;;6.80;99.90;;;;;;4444552;28;656446;-80
2021/11/03 00:05:00;;;;;;;60.27;29.20;;;6.80;99.90;;;;;;4455695;28;657209;-80
2021/11/03 00:07:48;;;;;;;57.63;29.00;;;6.80;99.90;;;;;;4449181;28;657099;-80
2021/11/03 00:10:35;;;;;;;56.33;27.73;;;6.80;99.90;;;;;;4445589;28;657127;-79
2021/11/03 00:13:25;;;;;;;55.50;27.50;;;6.90;99.90;;;;;;4452287;28;656370;-80
2021/11/03 00:16:13;;;;;;;58.83;28.47;;;6.80;99.90;;;;;;4431219;27;657761;-79
2021/11/03 00:19:00;;;;;;;58.23;25.23;;;6.80;99.90;;;;;;4418801;28;656454;-79
2021/11/03 00:21:49;;;;;;;59.97;28.43;;;6.80;99.90;;;;;;4457220;28;656956;-79
2021/11/03 00:24:37;;;;;;;53.60;24.23;;;6.70;99.90;;;;;;4444815;28;656581;-79
2021/11/03 00:27:25;;;;;;;63.20;28.97;;;6.70;99.90;;;;;;4450949;28;656542;-80
2021/11/03 00:30:14;;;;;;;59.20;29.73;;;6.70;99.90;;;;;;4427993;28;657576;-80
2021/11/03 00:33:01;;;;;;;56.90;26.13;;;6.70;99.90;;;;;;4436642;28;656470;-80
2021/11/03 00:35:49;;;;;;;60.70;28.53;;;6.70;99.90;;;;;;4454833;28;657261;-80
2021/11/03 00:38:36;;;;;;;59.73;29.67;;;6.70;99.90;;;;;;4438592;28;656515;-79
2021/11/03 00:41:24;;;;;;;61.83;30.43;;;6.80;99.90;;;;;;4466379;28;656487;-79
2021/11/03 00:44:11;;;;;;;36.73;19.63;;;6.70;99.90;;;;;;4448937;28;656909;-79
2021/11/03 00:47:01;;;;;;;48.83;24.80;;;6.70;99.90;;;;;;4469268;28;656806;-79
2021/11/03 00:49:48;;;;;;;52.67;26.60;;;6.70;99.90;;;;;;4432303;28;657176;-80
2021/11/03 00:52:36;;;;;;;58.40;27.67;;;6.70;99.90;;;;;;4435117;28;656968;-80
2021/11/03 00:55:24;;;;;;;51.23;25.17;;;6.70;99.90;;;;;;4452315;28;657318;-80
2021/11/03 00:58:11;;;;;;;44.00;21.90;;;6.60;99.90;;;;;;4438684;28;656842;-79
2021/11/03 01:00:59;;;;;;;52.93;23.27;;;6.60;99.90;;;;;;4464202;28;657499;-78
2021/11/03 01:03:48;;;;;;;49.57;25.43;;;6.60;99.90;;;;;;4444132;28;656388;-79
2021/11/03 01:06:35;;;;;;;57.90;24.93;;;6.60;99.90;;;;;;4436768;27;656801;-79
2021/11/03 01:09:23;;;;;;;49.07;24.53;;;6.60;99.90;;;;;;4468319;28;657039;-80
2021/11/03 01:12:11;;;;;;;44.33;22.90;;;6.50;99.90;;;;;;4421948;28;656890;-80
2021/11/03 01:14:58;;;;;;;49.40;24.67;;;6.50;99.90;;;;;;4452546;27;656819;-80
2021/11/03 01:17:46;;;;;;;50.30;25.23;;;6.50;99.90;;;;;;4434839;28;656902;-79
2021/11/03 01:20:36;;;;;;;45.63;24.00;;;6.50;99.90;;;;;;4446660;28;657640;-80
2021/11/03 01:23:24;;;;;;;49.53;24.30;;;6.50;99.90;;;;;;4413778;28;657360;-80
2021/11/03 01:26:11;;;;;;;46.90;23.90;;;6.50;99.90;;;;;;4435500;28;656738;-79
2021/11/03 01:28:59;;;;;;;44.40;22.67;;;6.50;99.90;;;;;;4465448;27;656464;-80
2021/11/03 01:31:46;;;;;;;48.80;24.90;;;6.50;99.90;;;;;;4458836;27;656588;-79
2021/11/03 01:34:34;;;;;;;48.80;23.37;;;6.40;99.90;;;;;;4472311;27;656718;-79
2021/11/03 01:37:23;;;;;;;47.10;24.50;;;6.40;99.90;;;;;;4457723;27;656448;-79
2021/11/03 01:40:13;;;;;;;47.20;23.30;;;6.40;99.90;;;;;;4446311;27;657404;-79
2021/11/03 01:43:01;;;;;;;47.20;23.97;;;6.40;99.90;;;;;;4466095;27;657211;-79
2021/11/03 01:45:49;;;;;;;50.83;23.87;;;6.30;99.90;;;;;;4469220;27;656900;-80
2021/11/03 01:48:36;;;;;;;47.13;24.37;;;6.30;99.90;;;;;;4437955;27;657248;-80
2021/11/03 01:51:28;;;;;;;51.77;26.93;;;6.40;99.90;;;;;;4468603;27;657056;-80
2021/11/03 01:54:20;;;;;;;43.03;21.90;;;6.30;99.90;;;;;;4429711;27;656712;-79
2021/11/03 01:57:09;;;;;;;58.20;28.20;;;6.30;99.90;;;;;;4435813;27;657362;-80
2021/11/03 01:59:59;;;;;;;56.07;26.30;;;6.30;99.90;;;;;;4449268;27;656675;-79
2021/11/03 02:02:46;;;;;;;55.70;28.90;;;6.20;99.90;;;;;;4446754;27;657384;-80
2021/11/03 02:05:34;;;;;;;54.50;29.80;;;6.20;99.90;;;;;;4471073;27;656731;-80
2021/11/03 02:08:21;;;;;;;49.30;26.43;;;6.30;99.90;;;;;;4449336;27;656921;-80
2021/11/03 02:11:10;;;;;;;50.73;26.70;;;6.20;99.90;;;;;;4461990;27;656662;-80
2021/11/03 02:13:59;;;;;;;52.80;28.37;;;6.20;99.90;;;;;;4461715;27;657811;-80
2021/11/03 02:16:52;;;;;;;52.17;28.53;;;6.20;99.90;;;;;;4451853;27;656737;-79
2021/11/03 02:19:39;;;;;;;52.53;27.60;;;6.10;99.90;;;;;;4439053;27;656560;-80
2021/11/03 02:22:31;;;;;;;52.47;27.30;;;6.10;99.90;;;;;;4446021;27;656559;-80
2021/11/03 02:25:20;;;;;;;49.40;24.90;;;6.10;99.90;;;;;;4452860;27;656983;-80
2021/11/03 02:28:07;;;;;;;51.33;26.50;;;6.00;99.90;;;;;;4448379;27;656831;-80
2021/11/03 02:30:55;;;;;;;53.53;26.40;;;6.00;99.90;;;;;;4471187;27;656473;-80
2021/11/03 02:33:43;;;;;;;53.83;28.57;;;5.90;99.90;;;;;;4471868;27;657200;-79
2021/11/03 02:36:30;;;;;;;51.93;27.67;;;5.90;99.90;;;;;;4443331;28;656722;-80
2021/11/03 02:39:18;;;;;;;51.00;27.70;;;5.80;99.90;;;;;;4472594;28;657414;-80
2021/11/03 02:42:07;;;;;;;50.73;27.37;;;5.80;99.90;;;;;;4442594;28;656335;-80
2021/11/03 02:44:55;;;;;;;56.17;28.70;;;5.70;99.90;;;;;;4484263;28;657009;-80
2021/11/03 02:47:42;;;;;;;50.97;27.23;;;5.60;99.90;;;;;;4444864;28;658343;-80
2021/11/03 02:50:30;;;;;;;49.30;26.13;;;5.50;99.90;;;;;;4482257;28;657572;-80
2021/11/03 02:53:17;;;;;;;49.73;26.80;;;5.40;99.90;;;;;;4439819;28;656999;-80
2021/11/03 02:56:06;;;;;;;55.20;26.83;;;5.30;99.90;;;;;;4461661;28;657108;-79
2021/11/03 02:58:55;;;;;;;53.63;26.65;;;5.30;99.90;;;;;;4476872;28;657389;-80
2021/11/03 03:01:44;;;;;;;50.93;26.47;;;5.20;99.90;;;;;;4442339;28;657354;-80
2021/11/03 03:04:33;;;;;;;46.90;25.75;;;5.20;99.90;;;;;;4440250;28;657295;-80
2021/11/03 03:07:21;;;;;;;46.22;24.38;;;5.10;99.90;;;;;;4443140;28;656364;-80
2021/11/03 03:10:09;;;;;;;43.00;23.97;;;5.10;99.90;;;;;;4471771;28;657363;-80
2021/11/03 03:12:56;;;;;;;73.43;22.40;;;5.10;99.90;;;;;;4459173;28;657004;-80
2021/11/03 03:15:45;;;;;;;63.70;20.83;;;5.10;99.90;;;;;;4471062;28;656291;-81
2021/11/03 03:18:33;;;;;;;42.30;22.67;;;5.10;99.90;;;;;;4440651;28;656986;-80
2021/11/03 03:21:22;;;;;;;40.83;23.17;;;5.10;99.90;;;;;;4446529;28;656747;-80
2021/11/03 03:24:10;;;;;;;40.87;22.13;;;5.10;99.90;;;;;;4466692;28;656724;-81
2021/11/03 03:26:57;;;;;;;45.50;23.43;;;5.10;99.90;;;;;;4446669;27;657675;-80
2021/11/03 03:29:45;;;;;;;39.60;21.37;;;5.10;99.90;;;;;;4466479;27;656994;-81
2021/11/03 03:32:34;;;;;;;58.10;21.73;;;5.10;99.90;;;;;;4452344;27;656757;-80
2021/11/03 03:35:21;;;;;;;38.57;20.80;;;5.10;99.90;;;;;;4446742;27;656140;-80
2021/11/03 03:38:09;;;;;;;41.03;22.40;;;5.10;99.90;;;;;;4463224;27;657220;-81
2021/11/03 03:40:57;;;;;;;42.27;21.90;;;5.10;99.90;;;;;;4440256;27;656978;-80
2021/11/03 03:43:45;;;;;;;48.27;23.20;;;5.10;99.90;;;;;;4483480;27;656909;-80
2021/11/03 03:46:32;;;;;;;41.07;21.20;;;5.00;99.90;;;;;;4444354;27;657313;-80
2021/11/03 03:49:21;;;;;;;37.10;20.70;;;5.10;99.90;;;;;;4470154;27;656445;-81
2021/11/03 03:52:09;;;;;;;159.40;23.60;;;5.10;99.90;;;;;;4452770;27;657311;-81
2021/11/03 03:54:57;;;;;;;46.20;23.23;;;5.10;99.90;;;;;;4448691;27;658224;-81
2021/11/03 03:57:44;;;;;;;40.27;21.13;;;5.10;99.90;;;;;;4484063;27;656363;-81
2021/11/03 04:00:32;;;;;;;41.90;19.77;;;5.10;99.90;;;;;;4463480;27;656332;-80
2021/11/03 04:03:19;;;;;;;35.80;19.47;;;5.10;99.90;;;;;;4488207;27;657108;-81
2021/11/03 04:06:09;;;;;;;36.73;20.33;;;5.10;99.90;;;;;;4455021;27;657190;-81
2021/11/03 04:08:56;;;;;;;38.63;20.10;;;5.10;99.90;;;;;;4460869;27;657240;-80
2021/11/03 04:11:44;;;;;;;36.80;20.30;;;5.10;99.90;;;;;;4455974;27;657363;-81
2021/11/03 04:14:31;;;;;;;43.27;19.90;;;5.00;99.90;;;;;;4456309;27;656433;-80
2021/11/03 04:17:19;;;;;;;42.30;20.40;;;5.00;99.90;;;;;;4479294;27;656749;-80
2021/11/03 04:20:07;;;;;;;39.27;20.77;;;5.00;99.90;;;;;;4456887;27;656460;-80
2021/11/03 04:22:56;;;;;;;45.57;21.63;;;4.90;99.90;;;;;;4488172;27;656977;-81
2021/11/03 04:25:44;;;;;;;42.10;20.87;;;4.80;99.90;;;;;;4463623;27;657223;-81
2021/11/03 04:28:32;;;;;;;49.35;20.92;;;4.80;99.90;;;;;;4460346;27;656576;-80
2021/11/03 04:31:20;;;;;;;39.63;21.07;;;4.70;99.90;;;;;;4467165;28;656930;-81
2021/11/03 04:34:08;;;;;;;39.60;20.30;;;4.60;99.90;;;;;;4444116;28;657103;-80
2021/11/03 04:36:56;;;;;;;42.60;20.40;;;4.60;99.90;;;;;;4446410;28;656727;-80
2021/11/03 04:39:45;;;;;;;38.43;19.83;;;4.60;99.90;;;;;;4456639;28;656372;-80
2021/11/03 04:42:32;;;;;;;36.70;18.17;;;4.50;99.90;;;;;;4429525;28;656696;-80
2021/11/03 04:45:20;;;;;;;76.82;18.50;;;4.40;99.90;;;;;;4449846;28;657246;-81
2021/11/03 04:48:07;;;;;;;38.30;18.87;;;4.30;99.90;;;;;;4425209;28;657099;-81
2021/11/03 04:50:55;;;;;;;37.93;18.20;;;4.20;99.90;;;;;;4457838;28;656642;-81
2021/11/03 04:53:42;;;;;;;35.67;17.80;;;4.20;99.90;;;;;;4436186;28;656782;-81
2021/11/03 04:56:35;;;;;;;56.10;21.00;;;4.10;99.90;;;;;;4454489;28;656449;-79
2021/11/03 04:59:23;;;;;;;109.57;28.27;;;4.00;99.90;;;;;;4434182;28;657158;-81
2021/11/03 05:02:11;;;;;;;377.33;63.90;;;3.90;99.90;;;;;;4436900;28;657363;-81
2021/11/03 05:04:59;;;;;;;259.55;49.58;;;3.80;99.90;;;;;;4463593;28;657674;-81
2021/11/03 05:07:48;;;;;;;109.73;30.20;;;3.80;99.90;;;;;;4441231;28;657918;-81
2021/11/03 05:10:35;;;;;;;98.77;30.37;;;3.70;99.90;;;;;;4440694;28;657922;-80
2021/11/03 05:13:25;;;;;;;73.93;25.40;;;3.60;99.90;;;;;;4444779;28;656720;-81
2021/11/03 05:16:13;;;;;;;104.43;34.33;;;3.60;99.90;;;;;;4431777;28;657482;-81
2021/11/03 05:19:01;;;;;;;52.70;21.53;;;3.50;99.90;;;;;;4446622;28;657549;-80
2021/11/03 05:21:49;;;;;;;149.27;38.47;;;3.50;99.90;;;;;;4435015;28;656507;-81
2021/11/03 05:24:37;;;;;;;70.60;26.57;;;3.40;99.90;;;;;;4414099;28;658457;-81
2021/11/03 05:27:25;;;;;;;66.37;26.77;;;3.40;99.90;;;;;;4443830;28;656514;-81
2021/11/03 05:33:15;;;;;;;303.80;33.47;;;3.30;99.90;;;;;;4355854;28;656756;-80
2021/11/03 05:36:06;;;;;;;58.07;22.90;;;3.20;99.90;;;;;;4384072;28;657898;-81
2021/11/03 05:38:54;;;;;;;51.63;21.50;;;3.10;99.90;;;;;;4362536;28;657944;-81
2021/11/03 05:41:41;;;;;;;48.43;19.73;;;3.10;99.90;;;;;;4371467;28;656551;-81
2021/11/03 05:44:29;;;;;;;58.17;18.67;;;3.00;99.90;;;;;;4388977;28;657553;-81
2021/11/03 05:47:21;;;;;;;40.87;16.33;;;2.90;99.90;;;;;;4372837;28;656843;-81
2021/11/03 05:50:09;;;;;;;36.67;16.23;;;3.00;99.90;;;;;;4371720;28;656654;-82
2021/11/03 05:52:57;;;;;;;51.70;18.77;;;3.00;99.90;;;;;;4374055;28;656725;-81
2021/11/03 05:55:45;;;;;;;34.27;15.97;;;3.00;99.90;;;;;;4394473;28;656879;-81
2021/11/03 05:58:33;;;;;;;40.33;18.00;;;3.10;99.90;;;;;;4369397;28;658066;-81
2021/11/03 06:01:21;;;;;;;61.80;18.17;;;3.10;99.90;;;;;;4372939;28;656487;-81
2021/11/03 06:04:10;;;;;;;37.07;16.73;;;3.10;99.90;;;;;;4396631;28;657265;-82
2021/11/03 06:06:57;;;;;;;35.63;13.70;;;3.10;99.90;;;;;;4368656;28;657429;-82
2021/11/03 06:09:46;;;;;;;29.43;13.03;;;3.20;99.90;;;;;;4388584;28;656814;-81
2021/11/03 06:12:33;;;;;;;37.23;16.80;;;3.30;99.90;;;;;;4396480;28;656780;-81
2021/11/03 06:15:22;;;;;;;25.33;12.97;;;3.50;99.90;;;;;;4418891;28;656728;-81
2021/11/03 06:18:11;;;;;;;17.37;9.67;;;3.60;99.90;;;;;;4421940;28;656367;-80
2021/11/03 06:21:00;;;;;;;21.07;10.20;;;3.70;99.90;;;;;;4437560;28;656194;-81
2021/11/03 06:23:48;;;;;;;19.33;10.37;;;3.90;99.90;;;;;;4432569;28;657751;-81
2021/11/03 06:26:35;;;;;;;23.90;12.07;;;3.90;99.90;;;;;;4435382;28;656645;-81
2021/11/03 06:29:23;;;;;;;20.97;11.40;;;4.00;99.90;;;;;;4463858;27;657204;-80
2021/11/03 06:32:11;;;;;;;18.80;9.67;;;4.20;99.90;;;;;;4446529;27;656568;-80
2021/11/03 06:34:58;;;;;;;16.73;9.67;;;4.40;99.90;;;;;;4449491;28;655612;-80
2021/11/03 06:37:47;;;;;;;19.80;9.47;;;4.60;99.90;;;;;;4448525;27;655336;-80
2021/11/03 06:40:38;;;;;;;16.50;9.10;;;4.70;99.90;;;;;;4470698;28;656030;-81
2021/11/03 06:43:26;;;;;;;21.00;11.37;;;4.90;99.90;;;;;;4453415;28;655823;-80
2021/11/03 06:46:13;;;;;;;20.47;10.73;;;4.90;99.90;;;;;;4473263;28;656930;-80
2021/11/03 06:49:01;;;;;;;22.73;11.90;;;5.00;99.90;;;;;;4446626;27;656870;-78
2021/11/03 06:51:49;;;;;;;17.40;8.40;;;5.10;99.90;;;;;;4468815;28;656941;-79
2021/11/03 06:54:38;;;;;;;22.52;11.38;;;5.10;99.90;;;;;;4446310;28;655603;-79
2021/11/03 06:57:26;;;;;;;14.37;8.73;;;5.20;99.90;;;;;;4455059;28;656907;-79
2021/11/03 07:00:15;;;;;;;15.10;8.50;;;5.30;99.90;;;;;;4462393;28;656034;-79
2021/11/03 07:03:03;;;;;;;22.80;10.17;;;5.40;99.90;;;;;;4433474;27;656405;-78
2021/11/03 07:05:51;;;;;;;21.40;11.10;;;5.60;99.90;;;;;;4443969;28;656401;-79
2021/11/03 07:08:39;;;;;;;16.05;8.70;;;5.60;99.90;;;;;;4458072;28;657519;-79
2021/11/03 07:11:28;;;;;;;18.47;9.03;;;5.70;99.90;;;;;;4452479;27;656210;-79
2021/11/03 07:14:16;;;;;;;18.50;9.33;;;5.90;99.90;;;;;;4456018;27;655686;-78
2021/11/03 07:17:06;;;;;;;21.77;11.07;;;6.00;99.90;;;;;;4489338;27;655769;-79
2021/11/03 07:19:54;;;;;;;28.77;13.13;;;6.10;99.90;;;;;;4438275;27;656890;-78
2021/11/03 07:22:42;;;;;;;29.13;12.00;;;6.30;99.90;;;;;;4446045;27;656731;-79
2021/11/03 07:25:30;;;;;;;16.87;9.40;;;6.40;99.90;;;;;;4475729;27;657631;-78
2021/11/03 07:28:19;;;;;;;20.67;10.57;;;6.50;99.90;;;;;;4453393;27;656280;-78
2021/11/03 07:31:08;;;;;;;23.17;10.53;;;6.60;99.90;;;;;;4444370;27;656775;-79
2021/11/03 07:33:55;;;;;;;19.37;9.70;;;6.80;99.90;;;;;;4456635;27;656280;-78
2021/11/03 07:36:43;;;;;;;15.53;7.93;;;6.90;99.90;;;;;;4481285;27;656772;-78
2021/11/03 07:39:31;;;;;;;18.60;8.07;;;7.00;99.90;;;;;;4451574;27;656140;-79
2021/11/03 07:42:18;;;;;;;12.32;6.18;;;7.10;99.90;;;;;;4477927;27;655678;-79
2021/11/03 07:45:08;;;;;;;10.30;5.87;;;7.30;99.90;;;;;;4445134;28;655525;-79
2021/11/03 07:47:56;;;;;;;8.13;5.00;;;7.60;99.90;;;;;;4449634;28;656693;-78
2021/11/03 07:50:45;;;;;;;9.40;5.50;;;7.70;99.90;;;;;;4468512;27;654823;-78
2021/11/03 07:53:32;;;;;;;8.50;4.93;;;7.90;99.90;;;;;;4459035;27;655390;-78
2021/11/03 07:56:22;;;;;;;10.30;4.87;;;8.30;99.90;;;;;;4472509;27;654925;-78
2021/11/03 07:59:10;;;;;;;14.20;6.23;;;8.60;99.90;;;;;;4461955;27;655319;-78
2021/11/03 08:02:00;;;;;;;10.77;5.53;;;8.90;99.90;;;;;;4460619;27;656879;-78
2021/11/03 08:04:48;;;;;;;17.77;9.97;;;9.20;99.90;;;;;;4456915;27;655907;-78
2021/11/03 08:07:36;;;;;;;18.63;9.30;;;9.60;99.90;;;;;;4467274;27;656925;-78
2021/11/03 08:10:24;;;;;;;13.20;6.67;;;10.10;99.90;;;;;;4472168;27;656459;-78
2021/11/03 08:13:15;;;;;;;15.13;6.83;;;10.20;99.90;;;;;;4456483;27;657696;-78
2021/11/03 08:16:04;;;;;;;9.30;5.17;;;10.40;1.00;;;;;;4436924;28;657447;-78
2021/11/03 08:18:53;;;;;;;10.00;4.87;;;10.60;1.00;;;;;;4437638;28;654861;-78
2021/11/03 08:21:41;;;;;;;8.23;4.80;;;10.60;99.90;;;;;;4456731;28;656176;-77
2021/11/03 08:24:28;;;;;;;8.63;3.93;;;10.60;99.90;;;;;;4455040;27;655856;-78
2021/11/03 08:27:17;;;;;;;6.17;3.40;;;10.80;1.00;;;;;;4453294;27;655481;-78
2021/11/03 08:30:06;;;;;;;7.80;3.47;;;10.80;79.50;;;;;;4458337;28;653639;-79
2021/11/03 08:32:57;;;;;;;6.80;3.33;;;11.00;1.00;;;;;;4436781;28;656249;-79
2021/11/03 08:35:48;;;;;;;6.57;3.60;;;11.10;99.90;;;;;;4473861;27;654094;-79
2021/11/03 08:38:36;;;;;;;6.17;3.20;;;11.50;99.90;;;;;;4472187;27;655657;-79
2021/11/03 08:41:25;;;;;;;6.13;3.53;;;11.70;99.90;;;;;;4487115;27;655840;-79
2021/11/03 08:44:13;;;;;;;6.47;3.30;;;12.00;99.90;;;;;;4465846;27;655598;-79
2021/11/03 08:47:02;;;;;;;4.23;2.57;;;12.20;99.90;;;;;;4429781;28;655801;-78
2021/11/03 08:49:50;;;;;;;3.80;2.20;;;12.50;99.90;;;;;;4463892;27;655261;-78
2021/11/03 08:52:39;;;;;;;4.60;2.87;;;12.70;99.90;;;;;;4460847;27;656452;-78
2021/11/03 08:55:29;;;;;;;4.40;2.60;;;12.60;99.90;;;;;;4465112;27;655504;-78
2021/11/03 08:58:17;;;;;;;4.70;2.80;;;12.90;99.90;;;;;;4461312;27;655252;-78
2021/11/03 09:01:05;;;;;;;4.77;2.80;;;13.20;99.90;;;;;;4479444;27;655471;-77
2021/11/03 09:03:52;;;;;;;6.17;2.17;;;13.50;99.90;;;;;;4451707;27;655698;-76
2021/11/03 09:06:41;;;;;;;4.13;2.23;;;13.80;99.90;;;;;;4477165;27;655718;-78
2021/11/03 09:09:30;;;;;;;3.57;2.17;;;13.30;99.90;;;;;;4485807;27;656205;-78
2021/11/03 09:12:18;;;;;;;2.23;1.80;;;13.30;99.90;;;;;;4463666;27;656408;-78
2021/11/03 09:15:06;;;;;;;12.50;2.40;;;13.50;99.90;;;;;;4455247;27;655640;-78
2021/11/03 09:17:54;;;;;;;5.23;2.20;;;13.40;99.90;;;;;;4475357;27;657416;-78
2021/11/03 09:20:42;;;;;;;5.82;2.50;;;13.60;99.90;;;;;;4443798;27;655562;-78
2021/11/03 09:23:29;;;;;;;3.27;2.33;;;13.90;99.90;;;;;;4466775;28;655281;-78
2021/11/03 09:26:20;;;;;;;4.37;2.07;;;14.70;99.90;;;;;;4464934;27;656250;-78
2021/11/03 09:29:08;;;;;;;4.63;2.00;;;15.50;99.90;;;;;;4443075;28;657122;-79
2021/11/03 09:31:56;;;;;;;2.70;1.70;;;15.50;99.90;;;;;;4456462;28;655170;-78
2021/11/03 09:34:43;;;;;;;3.80;2.10;;;15.30;99.90;;;;;;4488095;27;655958;-79
2021/11/03 09:37:33;;;;;;;2.70;1.90;;;15.30;99.90;;;;;;4468787;27;655261;-78
2021/11/03 09:40:24;;;;;;;4.53;2.00;;;15.60;99.90;;;;;;4466522;27;657391;-79
2021/11/03 09:43:30;;;;;;;3.50;2.00;;;15.50;99.90;;;;;;4463962;27;655548;-77
2021/11/03 09:46:19;;;;;;;4.20;2.20;;;15.40;99.90;;;;;;4459377;27;656401;-79
2021/11/03 09:49:18;;;;;;;5.07;2.23;;;15.10;99.90;;;;;;4448737;27;655622;-79
2021/11/03 09:52:15;;;;;;;3.43;2.10;;;15.50;99.90;;;;;;4430935;27;656225;-78
2021/11/03 09:55:09;;;;;;;2.77;2.10;;;15.80;99.90;;;;;;4442594;27;655801;-78
2021/11/03 09:58:04;;;;;;;2.80;2.20;;;16.30;99.90;;;;;;4433939;27;655168;-79
2021/11/03 10:00:56;;;;;;;4.00;2.67;;;16.10;99.90;;;;;;4442974;27;655903;-79
2021/11/03 10:03:46;;;;;;;4.00;2.43;;;16.50;99.90;;;;;;4437857;27;656318;-78
2021/11/03 10:06:39;;;;;;;4.60;2.40;;;16.40;99.90;;;;;;4439870;27;656068;-78
2021/11/03 10:09:27;;;;;;;4.40;2.08;;;16.00;99.90;;;;;;4432888;27;656141;-79
2021/11/03 10:12:17;;;;;;;3.80;2.20;;;16.00;99.90;;;;;;4464887;27;655816;-78
2021/11/03 10:15:05;;;;;;;3.23;1.67;;;16.10;99.90;;;;;;4468149;27;656133;-78
2021/11/03 10:18:17;;;;;;;5.67;2.20;;;16.60;99.90;;;;;;4440829;28;656264;-78
2021/11/03 10:21:15;;;;;;;2.30;1.70;;;16.50;99.90;;;;;;4462557;27;655242;-78
2021/11/03 10:24:05;;;;;;;3.43;1.90;;;17.00;99.90;;;;;;4444202;27;655227;-78
2021/11/03 10:26:54;;;;;;;3.60;2.00;;;17.70;99.90;;;;;;4454879;27;656713;-77
2021/11/03 10:29:43;;;;;;;3.60;1.90;;;17.50;99.90;;;;;;4462185;27;655361;-78
2021/11/03 10:32:33;;;;;;;3.50;1.77;;;18.20;99.90;;;;;;4472546;27;655897;-78
2021/11/03 10:35:26;;;;;;;2.97;1.23;;;18.30;99.20;;;;;;4471124;27;656061;-77
2021/11/03 10:38:15;;;;;;;3.90;1.30;;;18.20;96.30;;;;;;4462629;27;655389;-79
2021/11/03 10:41:05;;;;;;;1.70;1.23;;;17.50;94.70;;;;;;4457087;27;656842;-79
2021/11/03 10:44:01;;;;;;;2.83;1.10;;;17.70;95.00;;;;;;4460038;28;656879;-78
2021/11/03 10:46:54;;;;;;;2.57;1.40;;;17.60;95.60;;;;;;4451228;28;655666;-79
2021/11/03 10:49:49;;;;;;;2.30;1.23;;;17.50;94.70;;;;;;4444990;28;655617;-79
2021/11/03 10:52:41;;;;;;;1.93;1.20;;;17.50;93.90;;;;;;4446834;28;655456;-79
2021/11/03 10:55:30;;;;;;;1.20;1.03;;;17.60;94.20;;;;;;4459008;28;656096;-81
2021/11/03 10:58:26;;;;;;;1.77;1.20;;;17.30;94.30;;;;;;4462087;28;656503;-80
2021/11/03 11:01:26;;;;;;;1.27;1.10;;;17.60;95.40;;;;;;4461602;28;655452;-80
2021/11/03 11:04:15;;;;;;;2.13;1.30;;;18.50;92.10;;;;;;4458235;28;655600;-80
2021/11/03 11:07:08;;;;;;;3.27;1.30;;;18.30;91.80;;;;;;4457164;28;655870;-80
2021/11/03 11:10:01;;;;;;;1.23;0.90;;;18.20;91.10;;;;;;4459220;28;655180;-80
2021/11/03 11:12:50;;;;;;;5.07;0.90;;;18.50;91.50;;;;;;4435316;28;656513;-79
2021/11/03 11:15:42;;;;;;;2.67;1.00;;;18.50;87.80;;;;;;4437981;28;657964;-79
2021/11/03 11:18:49;;;;;;;1.70;1.10;;;18.00;89.60;;;;;;4434510;28;656036;-78
2021/11/03 11:21:44;;;;;;;1.33;0.90;;;18.60;90.20;;;;;;4432658;28;657978;-79
2021/11/03 11:24:34;;;;;;;1.20;1.03;;;19.10;90.20;;;;;;4442180;28;655608;-79
2021/11/03 11:27:26;;;;;;;2.03;0.70;;;19.30;84.10;;;;;;4450393;28;656148;-79
2021/11/03 11:30:16;;;;;;;1.43;0.90;;;19.10;80.70;;;;;;4433203;28;656731;-80
2021/11/03 11:33:05;;;;;;;1.77;1.10;;;19.10;79.90;;;;;;4432842;28;656081;-80
2021/11/03 11:36:01;;;;;;;2.23;1.20;;;19.80;79.50;;;;;;4415359;28;656629;-79
2021/11/03 11:38:59;;;;;;;1.77;1.00;;;20.10;75.60;;;;;;4439629;28;656458;-80
2021/11/03 11:41:57;;;;;;;1.13;0.50;;;20.90;76.30;;;;;;4395721;28;656366;-79
2021/11/03 11:44:53;;;;;;;0.68;0.68;;;20.70;73.60;;;;;;4433185;28;656081;-80
2021/11/03 11:47:42;;;;;;;2.83;0.90;;;20.30;72.40;;;;;;4419871;27;655508;-78
2021/11/03 11:50:40;;;;;;;3.35;1.02;;;20.30;74.50;;;;;;4453650;27;655167;-78
2021/11/03 11:53:30;;;;;;;1.48;1.15;;;20.70;75.20;;;;;;4430470;28;655600;-82
2021/11/03 11:56:24;;;;;;;4.15;1.40;;;21.00;72.60;;;;;;4443295;27;655984;-81
2021/11/03 11:59:20;;;;;;;1.90;1.40;;;21.30;73.70;;;;;;4452239;27;655846;-80
2021/11/03 12:02:12;;;;;;;2.33;1.60;;;21.30;74.30;;;;;;4433613;28;655942;-82
2021/11/03 12:05:16;;;;;;;3.22;1.40;;;20.90;73.60;;;;;;4448555;28;656715;-82
2021/11/03 12:08:16;;;;;;;2.15;1.48;;;20.70;73.00;;;;;;4423464;28;655987;-81
2021/11/03 12:11:18;;;;;;;2.22;1.42;;;20.40;73.60;;;;;;4438930;27;655239;-82
2021/11/03 12:14:33;;;;;;;2.17;1.20;;;20.40;73.90;;;;;;4419769;28;655908;-81
2021/11/03 12:17:57;;;;;;;1.83;1.23;;;20.40;73.30;;;;;;4462884;27;655578;-79
2021/11/03 12:20:52;;;;;;;1.80;1.13;;;20.80;72.50;;;;;;4465285;27;656127;-78
2021/11/03 12:23:49;;;;;;;1.63;1.10;;;21.00;71.70;;;;;;4442669;28;655025;-82
2021/11/03 12:26:39;;;;;;;2.67;1.40;;;21.20;71.40;;;;;;4406563;28;656217;-83
2021/11/03 12:29:41;;;;;;;2.67;1.17;;;21.40;72.00;;;;;;4439037;28;656035;-82
2021/11/03 12:32:32;;;;;;;3.03;1.50;;;21.30;70.80;;;;;;4441623;28;655245;-82
2021/11/03 12:35:59;;;;;;;2.80;1.57;;;21.10;71.20;;;;;;4445787;28;655720;-82
2021/11/03 12:38:55;;;;;;;3.27;1.80;;;20.80;72.50;;;;;;4408072;28;657017;-82
2021/11/03 12:41:44;;;;;;;5.00;1.87;;;20.40;73.00;;;;;;4450789;27;655530;-83
2021/11/03 12:44:33;;;;;;;4.37;1.73;;;20.00;73.80;;;;;;4442508;28;655956;-82
2021/11/03 12:47:21;;;;;;;7.77;3.03;;;20.10;74.50;;;;;;4446891;27;655954;-82
2021/11/03 12:50:13;;;;;;;9.67;1.87;;;20.80;74.50;;;;;;4468655;27;656083;-82
2021/11/03 12:53:10;;;;;;;4.30;1.80;;;21.70;73.40;;;;;;4420469;27;655682;-82
2021/11/03 12:55:59;;;;;;;3.17;1.60;;;22.60;70.10;;;;;;4411019;27;655501;-82
2021/11/03 12:58:47;;;;;;;2.80;1.70;;;22.40;68.70;;;;;;4447371;27;655376;-82
2021/11/03 13:01:39;;;;;;;7.83;3.10;;;22.70;67.20;;;;;;4466717;27;656334;-83
2021/11/03 13:04:30;;;;;;;4.33;2.07;;;23.00;68.70;;;;;;4450889;27;657043;-82
2021/11/03 13:07:19;;;;;;;3.43;1.90;;;23.50;65.00;;;;;;4436814;27;656612;-82
2021/11/03 13:10:14;;;;;;;3.10;2.20;;;24.40;64.00;;;;;;4446480;27;655257;-82
2021/11/03 13:13:04;;;;;;;6.17;1.83;;;23.60;62.20;;;;;;4448793;27;655265;-81
2021/11/03 13:15:53;;;;;;;4.13;1.83;;;23.80;61.60;;;;;;4449922;27;656137;-81
2021/11/03 13:18:43;;;;;;;2.90;1.40;;;23.30;61.50;;;;;;4446459;27;655760;-80
2021/11/03 13:21:34;;;;;;;2.23;1.40;;;22.60;62.90;;;;;;4468879;27;655678;-80
2021/11/03 13:24:23;;;;;;;2.47;1.20;;;21.80;63.70;;;;;;4446505;27;656501;-81
2021/11/03 13:27:17;;;;;;;2.93;1.37;;;21.30;62.50;;;;;;4449861;27;655597;-78
2021/11/03 13:30:06;;;;;;;2.37;1.20;;;21.30;64.50;;;;;;4447535;27;655808;-82
2021/11/03 13:32:56;;;;;;;1.73;1.20;;;23.30;62.40;;;;;;4438822;27;656247;-81
2021/11/03 13:35:44;;;;;;;5.37;1.43;;;24.40;59.10;;;;;;4436255;27;656455;-83
2021/11/03 13:38:33;;;;;;;3.80;1.40;;;24.50;57.90;;;;;;4443688;27;656257;-82
2021/11/03 13:41:25;;;;;;;2.60;1.50;;;25.10;56.90;;;;;;4447592;27;655578;-80
2021/11/03 13:44:15;;;;;;;1.83;1.30;;;26.50;56.00;;;;;;4441731;27;656852;-83
2021/11/03 13:47:05;;;;;;;2.58;1.30;;;27.10;52.70;;;;;;4438307;27;656077;-82
2021/11/03 13:50:21;;;;;;;2.03;1.23;;;28.10;52.70;;;;;;4440852;27;656948;-83
2021/11/03 13:53:28;;;;;;;1.45;1.10;;;28.20;49.60;;;;;;4370664;28;656301;-83
2021/11/03 13:56:16;;;;;;;2.50;1.25;;;28.90;49.40;;;;;;4373494;28;655768;-79
2021/11/03 13:59:23;;;;;;;1.58;1.05;;;29.80;48.60;;;;;;4397505;28;656540;-82
2021/11/03 14:02:26;;;;;;;2.63;1.60;;;29.60;47.80;;;;;;4363578;28;655657;-79
2021/11/03 14:05:27;;;;;;;2.65;1.88;;;29.60;48.00;;;;;;4379571;28;656520;-82
2021/11/03 14:08:26;;;;;;;2.38;1.30;;;28.70;46.40;;;;;;4404482;28;655558;-79
2021/11/03 14:11:13;;;;;;;2.80;1.52;;;27.70;48.60;;;;;;4389450;28;655934;-83
2021/11/03 14:14:01;;;;;;;4.68;2.03;;;27.50;48.20;;;;;;4388671;28;655572;-82
2021/11/03 14:16:53;;;;;;;1.52;1.42;;;27.30;49.30;;;;;;4414786;28;656652;-82
2021/11/03 14:19:43;;;;;;;6.20;3.08;;;26.50;49.90;;;;;;4392436;28;655598;-79
2021/11/03 14:22:32;;;;;;;7.00;3.63;;;26.20;50.40;;;;;;4384949;28;655907;-81
2021/11/03 14:25:21;;;;;;;10.25;4.80;;;25.30;51.80;;;;;;4413417;28;654861;-80
2021/11/03 14:28:10;;;;;;;10.85;4.55;;;23.90;53.70;;;;;;4366860;28;657171;-81
2021/11/03 14:31:00;;;;;;;6.50;2.73;;;24.10;53.90;;;;;;4383841;28;657283;-81